sensor_id;sensor_type;location;lat;lon;timestamp;temperature;humidity
35700;DHT22;21818;51.078;12.108;2022-11-30T00:00:03;11.50;84.40
35700;DHT22;21818;51.078;12.108;2022-11-30T00:02:29;11.50;84.40
35700;DHT22;21818;51.078;12.108;2022-11-30T00:04:55;11.50;85.00
35700;DHT22;21818;51.078;12.108;2022-11-30T00:07:20;11.40;84.50
35700;DHT22;21818;51.078;12.108;2022-11-30T00:09:46;11.50;84.60
35700;DHT22;21818;51.078;12.108;2022-11-30T00:12:11;11.40;84.50
35700;DHT22;21818;51.078;12.108;2022-11-30T00:14:37;11.40;85.00
35700;DHT22;21818;51.078;12.108;2022-11-30T00:17:03;11.40;84.50
35700;DHT22;21818;51.078;12.108;2022-11-30T00:19:28;11.40;84.60
35700;DHT22;21818;51.078;12.108;2022-11-30T00:21:54;11.40;84.70
35700;DHT22;21818;51.078;12.108;2022-11-30T00:24:19;11.40;84.70
35700;DHT22;21818;51.078;12.108;2022-11-30T00:26:45;11.40;84.70
35700;DHT22;21818;51.078;12.108;2022-11-30T00:29:10;11.40;84.70
35700;DHT22;21818;51.078;12.108;2022-11-30T00:31:37;11.40;84.60
35700;DHT22;21818;51.078;12.108;2022-11-30T00:34:02;11.40;84.60
35700;DHT22;21818;51.078;12.108;2022-11-30T00:36:28;11.40;84.60
35700;DHT22;21818;51.078;12.108;2022-11-30T00:38:54;11.40;84.60
35700;DHT22;21818;51.078;12.108;2022-11-30T00:41:20;11.40;84.60
35700;DHT22;21818;51.078;12.108;2022-11-30T00:43:46;11.40;84.60
35700;DHT22;21818;51.078;12.108;2022-11-30T00:46:11;11.40;84.50
35700;DHT22;21818;51.078;12.108;2022-11-30T00:48:38;11.30;84.60
35700;DHT22;21818;51.078;12.108;2022-11-30T00:51:05;11.30;84.60
35700;DHT22;21818;51.078;12.108;2022-11-30T00:53:31;11.30;84.60
35700;DHT22;21818;51.078;12.108;2022-11-30T00:55:56;11.30;84.60
35700;DHT22;21818;51.078;12.108;2022-11-30T00:58:22;11.30;84.60
35700;DHT22;21818;51.078;12.108;2022-11-30T01:00:47;11.30;84.60
35700;DHT22;21818;51.078;12.108;2022-11-30T01:03:13;11.30;84.60
35700;DHT22;21818;51.078;12.108;2022-11-30T01:05:39;11.30;84.60
35700;DHT22;21818;51.078;12.108;2022-11-30T01:08:07;11.30;84.60
35700;DHT22;21818;51.078;12.108;2022-11-30T01:10:34;11.30;84.60
35700;DHT22;21818;51.078;12.108;2022-11-30T01:13:00;11.30;84.60
35700;DHT22;21818;51.078;12.108;2022-11-30T01:15:26;11.30;84.70
35700;DHT22;21818;51.078;12.108;2022-11-30T01:17:52;11.30;84.80
35700;DHT22;21818;51.078;12.108;2022-11-30T01:20:17;11.20;84.80
35700;DHT22;21818;51.078;12.108;2022-11-30T01:22:43;11.20;85.40
35700;DHT22;21818;51.078;12.108;2022-11-30T01:25:09;11.20;84.80
35700;DHT22;21818;51.078;12.108;2022-11-30T01:27:34;11.20;84.80
35700;DHT22;21818;51.078;12.108;2022-11-30T01:30:00;11.20;84.90
35700;DHT22;21818;51.078;12.108;2022-11-30T01:32:26;11.20;84.80
35700;DHT22;21818;51.078;12.108;2022-11-30T01:34:52;11.20;84.90
35700;DHT22;21818;51.078;12.108;2022-11-30T01:37:18;11.20;84.90
35700;DHT22;21818;51.078;12.108;2022-11-30T01:39:43;11.20;84.90
35700;DHT22;21818;51.078;12.108;2022-11-30T01:42:14;11.20;85.00
35700;DHT22;21818;51.078;12.108;2022-11-30T01:44:59;11.20;85.00
35700;DHT22;21818;51.078;12.108;2022-11-30T01:47:40;11.20;85.00
35700;DHT22;21818;51.078;12.108;2022-11-30T01:50:29;11.20;85.00
35700;DHT22;21818;51.078;12.108;2022-11-30T01:52:57;11.10;84.90
35700;DHT22;21818;51.078;12.108;2022-11-30T01:55:30;11.20;85.00
35700;DHT22;21818;51.078;12.108;2022-11-30T02:00:25;11.20;85.00
35700;DHT22;21818;51.078;12.108;2022-11-30T02:05:20;11.20;85.00
35700;DHT22;21818;51.078;12.108;2022-11-30T02:07:45;11.20;85.00
35700;DHT22;21818;51.078;12.108;2022-11-30T02:10:16;11.20;85.00
35700;DHT22;21818;51.078;12.108;2022-11-30T02:15:26;11.10;85.10
35700;DHT22;21818;51.078;12.108;2022-11-30T02:18:17;11.10;85.10
35700;DHT22;21818;51.078;12.108;2022-11-30T02:23:39;11.20;85.10
35700;DHT22;21818;51.078;12.108;2022-11-30T02:28:56;11.10;85.00
35700;DHT22;21818;51.078;12.108;2022-11-30T02:31:26;11.20;85.20
35700;DHT22;21818;51.078;12.108;2022-11-30T02:33:56;11.30;85.20
35700;DHT22;21818;51.078;12.108;2022-11-30T02:36:23;11.30;85.10
35700;DHT22;21818;51.078;12.108;2022-11-30T02:38:49;11.20;85.20
35700;DHT22;21818;51.078;12.108;2022-11-30T02:41:16;11.30;85.30
35700;DHT22;21818;51.078;12.108;2022-11-30T02:43:41;11.20;85.90
35700;DHT22;21818;51.078;12.108;2022-11-30T02:46:29;11.20;85.40
35700;DHT22;21818;51.078;12.108;2022-11-30T02:49:06;11.10;85.40
35700;DHT22;21818;51.078;12.108;2022-11-30T02:51:36;11.10;85.50
35700;DHT22;21818;51.078;12.108;2022-11-30T02:54:02;11.10;85.60
35700;DHT22;21818;51.078;12.108;2022-11-30T02:56:28;11.10;85.60
35700;DHT22;21818;51.078;12.108;2022-11-30T02:58:54;11.10;85.60
35700;DHT22;21818;51.078;12.108;2022-11-30T03:01:20;11.10;85.60
35700;DHT22;21818;51.078;12.108;2022-11-30T03:03:46;11.10;85.60
35700;DHT22;21818;51.078;12.108;2022-11-30T03:06:12;11.10;85.50
35700;DHT22;21818;51.078;12.108;2022-11-30T03:08:37;11.10;85.60
35700;DHT22;21818;51.078;12.108;2022-11-30T03:11:04;11.10;85.50
35700;DHT22;21818;51.078;12.108;2022-11-30T03:13:31;11.20;85.50
35700;DHT22;21818;51.078;12.108;2022-11-30T03:15:57;11.10;85.50
35700;DHT22;21818;51.078;12.108;2022-11-30T03:18:23;11.20;85.50
35700;DHT22;21818;51.078;12.108;2022-11-30T03:20:48;11.10;86.00
35700;DHT22;21818;51.078;12.108;2022-11-30T03:23:14;11.10;85.50
35700;DHT22;21818;51.078;12.108;2022-11-30T03:25:39;11.20;85.40
35700;DHT22;21818;51.078;12.108;2022-11-30T03:28:05;11.20;85.30
35700;DHT22;21818;51.078;12.108;2022-11-30T03:30:30;11.10;85.30
35700;DHT22;21818;51.078;12.108;2022-11-30T03:32:56;11.10;85.30
35700;DHT22;21818;51.078;12.108;2022-11-30T03:35:22;11.10;85.30
35700;DHT22;21818;51.078;12.108;2022-11-30T03:37:47;11.10;85.20
35700;DHT22;21818;51.078;12.108;2022-11-30T03:40:13;11.10;85.20
35700;DHT22;21818;51.078;12.108;2022-11-30T03:42:39;11.10;85.30
35700;DHT22;21818;51.078;12.108;2022-11-30T03:45:05;11.10;85.30
35700;DHT22;21818;51.078;12.108;2022-11-30T03:47:30;11.00;85.30
35700;DHT22;21818;51.078;12.108;2022-11-30T03:49:56;11.10;85.40
35700;DHT22;21818;51.078;12.108;2022-11-30T03:52:22;11.10;85.30
35700;DHT22;21818;51.078;12.108;2022-11-30T03:54:47;11.10;85.40
35700;DHT22;21818;51.078;12.108;2022-11-30T03:57:13;11.10;85.30
35700;DHT22;21818;51.078;12.108;2022-11-30T03:59:38;11.00;85.10
35700;DHT22;21818;51.078;12.108;2022-11-30T04:02:04;11.00;85.30
35700;DHT22;21818;51.078;12.108;2022-11-30T04:04:29;11.10;85.30
35700;DHT22;21818;51.078;12.108;2022-11-30T04:06:55;11.00;85.30
35700;DHT22;21818;51.078;12.108;2022-11-30T04:09:21;11.10;85.40
35700;DHT22;21818;51.078;12.108;2022-11-30T04:11:46;11.00;85.30
35700;DHT22;21818;51.078;12.108;2022-11-30T04:14:12;11.00;85.40
35700;DHT22;21818;51.078;12.108;2022-11-30T04:16:37;11.00;85.40
35700;DHT22;21818;51.078;12.108;2022-11-30T04:19:03;11.00;85.40
35700;DHT22;21818;51.078;12.108;2022-11-30T04:21:29;11.00;85.40
35700;DHT22;21818;51.078;12.108;2022-11-30T04:23:54;11.00;85.30
35700;DHT22;21818;51.078;12.108;2022-11-30T04:26:20;11.00;85.20
35700;DHT22;21818;51.078;12.108;2022-11-30T04:28:46;11.00;85.20
35700;DHT22;21818;51.078;12.108;2022-11-30T04:31:12;11.00;85.20
35700;DHT22;21818;51.078;12.108;2022-11-30T04:33:38;11.00;85.10
35700;DHT22;21818;51.078;12.108;2022-11-30T04:36:05;10.90;85.10
35700;DHT22;21818;51.078;12.108;2022-11-30T04:38:33;10.90;85.10
35700;DHT22;21818;51.078;12.108;2022-11-30T04:41:05;10.90;85.10
35700;DHT22;21818;51.078;12.108;2022-11-30T04:43:31;10.90;85.10
35700;DHT22;21818;51.078;12.108;2022-11-30T04:45:56;10.90;85.40
35700;DHT22;21818;51.078;12.108;2022-11-30T04:48:22;10.90;85.20
35700;DHT22;21818;51.078;12.108;2022-11-30T04:50:48;10.90;85.20
35700;DHT22;21818;51.078;12.108;2022-11-30T04:53:13;10.90;85.10
35700;DHT22;21818;51.078;12.108;2022-11-30T04:55:39;10.90;85.10
35700;DHT22;21818;51.078;12.108;2022-11-30T04:58:05;10.80;85.20
35700;DHT22;21818;51.078;12.108;2022-11-30T05:00:31;10.80;85.20
35700;DHT22;21818;51.078;12.108;2022-11-30T05:02:57;10.80;85.30
35700;DHT22;21818;51.078;12.108;2022-11-30T05:05:23;10.80;85.30
35700;DHT22;21818;51.078;12.108;2022-11-30T05:07:56;10.80;85.40
35700;DHT22;21818;51.078;12.108;2022-11-30T05:10:22;10.90;85.30
35700;DHT22;21818;51.078;12.108;2022-11-30T05:12:48;10.90;85.20
35700;DHT22;21818;51.078;12.108;2022-11-30T05:15:14;10.90;85.20
35700;DHT22;21818;51.078;12.108;2022-11-30T05:17:40;10.80;85.30
35700;DHT22;21818;51.078;12.108;2022-11-30T05:20:06;10.90;85.30
35700;DHT22;21818;51.078;12.108;2022-11-30T05:22:32;10.80;85.10
35700;DHT22;21818;51.078;12.108;2022-11-30T05:24:59;10.80;85.70
35700;DHT22;21818;51.078;12.108;2022-11-30T05:27:25;10.80;85.20
35700;DHT22;21818;51.078;12.108;2022-11-30T05:29:51;10.80;85.10
35700;DHT22;21818;51.078;12.108;2022-11-30T05:32:16;10.80;85.10
35700;DHT22;21818;51.078;12.108;2022-11-30T05:34:42;10.80;85.10
35700;DHT22;21818;51.078;12.108;2022-11-30T05:37:08;10.80;85.10
35700;DHT22;21818;51.078;12.108;2022-11-30T05:39:33;10.80;85.10
35700;DHT22;21818;51.078;12.108;2022-11-30T05:41:59;10.80;85.10
35700;DHT22;21818;51.078;12.108;2022-11-30T05:44:24;10.80;85.20
35700;DHT22;21818;51.078;12.108;2022-11-30T05:46:50;10.80;85.10
35700;DHT22;21818;51.078;12.108;2022-11-30T05:49:15;10.80;85.10
35700;DHT22;21818;51.078;12.108;2022-11-30T05:51:41;10.80;85.10
35700;DHT22;21818;51.078;12.108;2022-11-30T05:54:06;10.80;85.10
35700;DHT22;21818;51.078;12.108;2022-11-30T05:56:32;10.90;85.20
35700;DHT22;21818;51.078;12.108;2022-11-30T05:58:58;10.90;85.10
35700;DHT22;21818;51.078;12.108;2022-11-30T06:01:26;10.80;85.00
35700;DHT22;21818;51.078;12.108;2022-11-30T06:03:52;10.80;85.00
35700;DHT22;21818;51.078;12.108;2022-11-30T06:06:18;10.80;85.00
35700;DHT22;21818;51.078;12.108;2022-11-30T06:08:45;10.80;85.10
35700;DHT22;21818;51.078;12.108;2022-11-30T06:11:11;10.80;85.20
35700;DHT22;21818;51.078;12.108;2022-11-30T06:13:38;10.80;85.20
35700;DHT22;21818;51.078;12.108;2022-11-30T06:16:06;10.80;85.10
35700;DHT22;21818;51.078;12.108;2022-11-30T06:18:32;10.80;85.10
35700;DHT22;21818;51.078;12.108;2022-11-30T06:21:06;10.80;85.10
35700;DHT22;21818;51.078;12.108;2022-11-30T06:23:32;10.80;85.10
35700;DHT22;21818;51.078;12.108;2022-11-30T06:26:01;10.80;85.10
35700;DHT22;21818;51.078;12.108;2022-11-30T06:28:27;10.80;84.90
35700;DHT22;21818;51.078;12.108;2022-11-30T06:30:57;10.80;84.90
35700;DHT22;21818;51.078;12.108;2022-11-30T06:33:23;10.80;85.00
35700;DHT22;21818;51.078;12.108;2022-11-30T06:35:49;10.80;84.80
35700;DHT22;21818;51.078;12.108;2022-11-30T06:38:14;10.80;84.80
35700;DHT22;21818;51.078;12.108;2022-11-30T06:40:40;10.80;84.80
35700;DHT22;21818;51.078;12.108;2022-11-30T06:43:05;10.80;84.70
35700;DHT22;21818;51.078;12.108;2022-11-30T06:45:31;10.80;84.70
35700;DHT22;21818;51.078;12.108;2022-11-30T06:47:57;10.80;84.80
35700;DHT22;21818;51.078;12.108;2022-11-30T06:50:23;10.70;84.90
35700;DHT22;21818;51.078;12.108;2022-11-30T06:52:48;10.70;85.00
35700;DHT22;21818;51.078;12.108;2022-11-30T06:55:14;10.70;85.00
35700;DHT22;21818;51.078;12.108;2022-11-30T06:57:40;10.70;85.10
35700;DHT22;21818;51.078;12.108;2022-11-30T07:00:06;10.60;85.10
35700;DHT22;21818;51.078;12.108;2022-11-30T07:02:32;10.60;85.10
35700;DHT22;21818;51.078;12.108;2022-11-30T07:04:58;10.60;85.10
35700;DHT22;21818;51.078;12.108;2022-11-30T07:07:24;10.60;85.10
35700;DHT22;21818;51.078;12.108;2022-11-30T07:09:50;10.60;85.10
35700;DHT22;21818;51.078;12.108;2022-11-30T07:12:16;10.60;85.10
35700;DHT22;21818;51.078;12.108;2022-11-30T07:14:42;10.60;85.00
35700;DHT22;21818;51.078;12.108;2022-11-30T07:17:08;10.60;85.10
35700;DHT22;21818;51.078;12.108;2022-11-30T07:19:33;10.60;85.10
35700;DHT22;21818;51.078;12.108;2022-11-30T07:21:59;10.60;85.10
35700;DHT22;21818;51.078;12.108;2022-11-30T07:24:24;10.60;85.10
35700;DHT22;21818;51.078;12.108;2022-11-30T07:27:08;10.60;85.10
35700;DHT22;21818;51.078;12.108;2022-11-30T07:29:34;10.60;85.20
35700;DHT22;21818;51.078;12.108;2022-11-30T07:32:00;10.60;85.30
35700;DHT22;21818;51.078;12.108;2022-11-30T07:34:25;10.60;85.40
35700;DHT22;21818;51.078;12.108;2022-11-30T07:36:51;10.60;85.30
35700;DHT22;21818;51.078;12.108;2022-11-30T07:39:17;10.80;85.40
35700;DHT22;21818;51.078;12.108;2022-11-30T07:41:42;11.40;84.30
35700;DHT22;21818;51.078;12.108;2022-11-30T07:44:09;11.80;83.40
35700;DHT22;21818;51.078;12.108;2022-11-30T07:46:36;12.10;82.80
35700;DHT22;21818;51.078;12.108;2022-11-30T07:49:08;12.30;82.40
35700;DHT22;21818;51.078;12.108;2022-11-30T07:51:34;12.40;82.20
35700;DHT22;21818;51.078;12.108;2022-11-30T07:53:59;12.50;82.00
35700;DHT22;21818;51.078;12.108;2022-11-30T07:56:26;12.60;81.90
35700;DHT22;21818;51.078;12.108;2022-11-30T07:58:57;12.70;81.90
35700;DHT22;21818;51.078;12.108;2022-11-30T08:01:26;12.80;81.90
35700;DHT22;21818;51.078;12.108;2022-11-30T08:03:52;12.80;81.80
35700;DHT22;21818;51.078;12.108;2022-11-30T08:06:20;12.90;81.80
35700;DHT22;21818;51.078;12.108;2022-11-30T08:08:48;12.90;81.70
35700;DHT22;21818;51.078;12.108;2022-11-30T08:11:20;12.90;81.70
35700;DHT22;21818;51.078;12.108;2022-11-30T08:13:46;13.00;81.70
35700;DHT22;21818;51.078;12.108;2022-11-30T08:16:16;13.00;81.70
35700;DHT22;21818;51.078;12.108;2022-11-30T08:18:43;13.00;81.70
35700;DHT22;21818;51.078;12.108;2022-11-30T08:21:10;13.10;81.70
35700;DHT22;21818;51.078;12.108;2022-11-30T08:23:39;13.10;81.60
35700;DHT22;21818;51.078;12.108;2022-11-30T08:26:13;13.10;81.60
35700;DHT22;21818;51.078;12.108;2022-11-30T08:28:40;13.20;81.50
35700;DHT22;21818;51.078;12.108;2022-11-30T08:31:09;13.10;81.40
35700;DHT22;21818;51.078;12.108;2022-11-30T08:33:36;13.20;81.50
35700;DHT22;21818;51.078;12.108;2022-11-30T08:38:31;13.20;81.20
35700;DHT22;21818;51.078;12.108;2022-11-30T08:40:57;13.20;81.20
35700;DHT22;21818;51.078;12.108;2022-11-30T08:43:22;13.30;81.20
35700;DHT22;21818;51.078;12.108;2022-11-30T08:45:48;13.20;81.50
35700;DHT22;21818;51.078;12.108;2022-11-30T08:48:14;13.30;81.00
35700;DHT22;21818;51.078;12.108;2022-11-30T08:50:39;13.30;81.00
35700;DHT22;21818;51.078;12.108;2022-11-30T08:53:05;13.30;81.40
35700;DHT22;21818;51.078;12.108;2022-11-30T08:55:30;13.30;80.90
35700;DHT22;21818;51.078;12.108;2022-11-30T08:57:56;13.30;80.80
35700;DHT22;21818;51.078;12.108;2022-11-30T09:00:22;13.30;80.90
35700;DHT22;21818;51.078;12.108;2022-11-30T09:02:48;13.30;80.90
35700;DHT22;21818;51.078;12.108;2022-11-30T09:05:13;13.30;80.80
35700;DHT22;21818;51.078;12.108;2022-11-30T09:07:39;13.40;80.90
35700;DHT22;21818;51.078;12.108;2022-11-30T09:10:05;13.40;80.80
35700;DHT22;21818;51.078;12.108;2022-11-30T09:12:37;13.40;80.70
35700;DHT22;21818;51.078;12.108;2022-11-30T09:15:04;13.40;80.70
35700;DHT22;21818;51.078;12.108;2022-11-30T09:17:30;13.40;80.70
35700;DHT22;21818;51.078;12.108;2022-11-30T09:19:56;13.40;80.70
35700;DHT22;21818;51.078;12.108;2022-11-30T09:22:21;13.40;80.60
35700;DHT22;21818;51.078;12.108;2022-11-30T09:24:47;13.50;80.60
35700;DHT22;21818;51.078;12.108;2022-11-30T09:27:13;13.50;80.60
35700;DHT22;21818;51.078;12.108;2022-11-30T09:29:38;13.50;80.60
35700;DHT22;21818;51.078;12.108;2022-11-30T09:32:04;13.50;80.50
35700;DHT22;21818;51.078;12.108;2022-11-30T09:34:30;13.50;80.50
35700;DHT22;21818;51.078;12.108;2022-11-30T09:36:55;13.50;80.40
35700;DHT22;21818;51.078;12.108;2022-11-30T09:39:21;13.50;80.40
35700;DHT22;21818;51.078;12.108;2022-11-30T09:50:17;13.60;80.30
35700;DHT22;21818;51.078;12.108;2022-11-30T09:52:53;13.60;80.30
35700;DHT22;21818;51.078;12.108;2022-11-30T09:55:25;13.60;80.20
35700;DHT22;21818;51.078;12.108;2022-11-30T09:58:00;13.60;80.20
35700;DHT22;21818;51.078;12.108;2022-11-30T10:00:27;13.60;80.10
35700;DHT22;21818;51.078;12.108;2022-11-30T10:02:55;13.60;80.00
35700;DHT22;21818;51.078;12.108;2022-11-30T10:05:25;13.60;79.90
35700;DHT22;21818;51.078;12.108;2022-11-30T10:15:54;13.70;79.90
35700;DHT22;21818;51.078;12.108;2022-11-30T10:18:37;13.70;79.90
35700;DHT22;21818;51.078;12.108;2022-11-30T10:21:20;13.70;79.90
35700;DHT22;21818;51.078;12.108;2022-11-30T10:26:35;13.70;79.80
35700;DHT22;21818;51.078;12.108;2022-11-30T10:31:46;13.60;79.70
35700;DHT22;21818;51.078;12.108;2022-11-30T10:34:34;13.70;80.30
35700;DHT22;21818;51.078;12.108;2022-11-30T10:42:14;13.70;79.60
35700;DHT22;21818;51.078;12.108;2022-11-30T10:44:45;13.70;79.60
35700;DHT22;21818;51.078;12.108;2022-11-30T10:47:20;13.70;79.60
35700;DHT22;21818;51.078;12.108;2022-11-30T10:49:51;13.70;79.50
35700;DHT22;21818;51.078;12.108;2022-11-30T10:52:26;13.80;79.60
35700;DHT22;21818;51.078;12.108;2022-11-30T10:54:54;13.80;79.50
35700;DHT22;21818;51.078;12.108;2022-11-30T10:57:23;13.80;79.50
35700;DHT22;21818;51.078;12.108;2022-11-30T10:59:53;13.80;79.40
35700;DHT22;21818;51.078;12.108;2022-11-30T11:02:40;13.80;79.40
35700;DHT22;21818;51.078;12.108;2022-11-30T11:05:21;13.80;79.30
35700;DHT22;21818;51.078;12.108;2022-11-30T11:08:02;13.80;79.30
35700;DHT22;21818;51.078;12.108;2022-11-30T11:10:46;13.80;79.30
35700;DHT22;21818;51.078;12.108;2022-11-30T11:13:19;13.80;79.20
35700;DHT22;21818;51.078;12.108;2022-11-30T11:15:56;13.90;79.20
35700;DHT22;21818;51.078;12.108;2022-11-30T11:18:25;13.80;79.10
35700;DHT22;21818;51.078;12.108;2022-11-30T11:21:05;13.90;79.70
35700;DHT22;21818;51.078;12.108;2022-11-30T11:25:59;13.90;79.10
35700;DHT22;21818;51.078;12.108;2022-11-30T11:28:25;13.90;79.10
35700;DHT22;21818;51.078;12.108;2022-11-30T11:30:52;13.90;79.00
35700;DHT22;21818;51.078;12.108;2022-11-30T11:33:24;13.90;79.00
35700;DHT22;21818;51.078;12.108;2022-11-30T11:35:51;14.00;79.50
35700;DHT22;21818;51.078;12.108;2022-11-30T11:40:58;14.00;79.00
35700;DHT22;21818;51.078;12.108;2022-11-30T11:43:31;14.00;78.80
35700;DHT22;21818;51.078;12.108;2022-11-30T11:46:11;14.00;78.80
35700;DHT22;21818;51.078;12.108;2022-11-30T11:48:47;14.00;78.80
35700;DHT22;21818;51.078;12.108;2022-11-30T11:51:29;14.00;79.20
35700;DHT22;21818;51.078;12.108;2022-11-30T11:54:11;14.00;78.60
35700;DHT22;21818;51.078;12.108;2022-11-30T11:56:40;14.10;78.60
35700;DHT22;21818;51.078;12.108;2022-11-30T12:01:44;14.10;78.60
35700;DHT22;21818;51.078;12.108;2022-11-30T12:06:47;14.10;78.40
35700;DHT22;21818;51.078;12.108;2022-11-30T12:09:23;14.10;78.40
35700;DHT22;21818;51.078;12.108;2022-11-30T12:11:51;14.20;78.30
35700;DHT22;21818;51.078;12.108;2022-11-30T12:14:18;14.20;78.30
35700;DHT22;21818;51.078;12.108;2022-11-30T12:19:36;14.30;78.10
35700;DHT22;21818;51.078;12.108;2022-11-30T12:27:55;14.40;77.70
35700;DHT22;21818;51.078;12.108;2022-11-30T12:38:48;14.50;77.60
35700;DHT22;21818;51.078;12.108;2022-11-30T12:42:05;14.50;77.60
35700;DHT22;21818;51.078;12.108;2022-11-30T12:44:28;14.50;77.60
35700;DHT22;21818;51.078;12.108;2022-11-30T12:50:29;14.50;77.50
35700;DHT22;21818;51.078;12.108;2022-11-30T12:58:46;14.50;77.40
35700;DHT22;21818;51.078;12.108;2022-11-30T13:04:20;14.50;77.40
35700;DHT22;21818;51.078;12.108;2022-11-30T13:06:58;14.50;77.40
35700;DHT22;21818;51.078;12.108;2022-11-30T13:09:33;14.50;77.40
35700;DHT22;21818;51.078;12.108;2022-11-30T13:12:06;14.50;77.40
35700;DHT22;21818;51.078;12.108;2022-11-30T13:14:33;14.50;77.40
35700;DHT22;21818;51.078;12.108;2022-11-30T13:17:02;14.50;77.40
35700;DHT22;21818;51.078;12.108;2022-11-30T13:19:49;14.40;77.40
35700;DHT22;21818;51.078;12.108;2022-11-30T13:22:44;14.40;77.40
35700;DHT22;21818;51.078;12.108;2022-11-30T13:31:04;14.40;77.50
35700;DHT22;21818;51.078;12.108;2022-11-30T13:33:37;14.40;78.10
35700;DHT22;21818;51.078;12.108;2022-11-30T13:36:47;14.30;77.60
35700;DHT22;21818;51.078;12.108;2022-11-30T13:41:40;14.20;77.60
35700;DHT22;21818;51.078;12.108;2022-11-30T13:44:31;14.20;77.60
35700;DHT22;21818;51.078;12.108;2022-11-30T13:49:40;14.20;77.60
35700;DHT22;21818;51.078;12.108;2022-11-30T13:52:06;14.20;77.70
35700;DHT22;21818;51.078;12.108;2022-11-30T13:54:38;14.20;77.70
35700;DHT22;21818;51.078;12.108;2022-11-30T14:07:42;14.20;77.70
35700;DHT22;21818;51.078;12.108;2022-11-30T14:26:10;14.10;77.70
35700;DHT22;21818;51.078;12.108;2022-11-30T14:28:49;14.10;77.70
35700;DHT22;21818;51.078;12.108;2022-11-30T14:31:23;14.10;77.70
35700;DHT22;21818;51.078;12.108;2022-11-30T14:34:44;14.10;77.70
35700;DHT22;21818;51.078;12.108;2022-11-30T14:36:50;14.10;77.80
35700;DHT22;21818;51.078;12.108;2022-11-30T14:39:30;14.10;77.80
35700;DHT22;21818;51.078;12.108;2022-11-30T14:41:57;14.10;77.80
35700;DHT22;21818;51.078;12.108;2022-11-30T14:44:22;14.00;77.80
35700;DHT22;21818;51.078;12.108;2022-11-30T14:46:48;14.00;77.80
35700;DHT22;21818;51.078;12.108;2022-11-30T14:49:16;14.10;77.90
35700;DHT22;21818;51.078;12.108;2022-11-30T14:51:45;14.00;77.80
35700;DHT22;21818;51.078;12.108;2022-11-30T14:54:57;14.00;77.80
35700;DHT22;21818;51.078;12.108;2022-11-30T14:57:42;14.00;77.80
35700;DHT22;21818;51.078;12.108;2022-11-30T15:00:17;14.00;77.80
35700;DHT22;21818;51.078;12.108;2022-11-30T15:02:44;14.00;77.90
35700;DHT22;21818;51.078;12.108;2022-11-30T15:05:23;14.00;77.90
35700;DHT22;21818;51.078;12.108;2022-11-30T15:07:53;14.00;77.90
35700;DHT22;21818;51.078;12.108;2022-11-30T15:10:26;14.00;77.90
35700;DHT22;21818;51.078;12.108;2022-11-30T15:12:53;14.00;77.90
35700;DHT22;21818;51.078;12.108;2022-11-30T15:15:27;13.90;77.90
35700;DHT22;21818;51.078;12.108;2022-11-30T15:20:59;14.00;77.90
35700;DHT22;21818;51.078;12.108;2022-11-30T15:23:26;14.00;78.00
35700;DHT22;21818;51.078;12.108;2022-11-30T15:25:58;14.00;77.90
35700;DHT22;21818;51.078;12.108;2022-11-30T15:28:31;14.00;77.90
35700;DHT22;21818;51.078;12.108;2022-11-30T15:31:04;14.00;77.90
35700;DHT22;21818;51.078;12.108;2022-11-30T15:33:50;14.00;78.40
35700;DHT22;21818;51.078;12.108;2022-11-30T15:36:16;14.00;77.90
35700;DHT22;21818;51.078;12.108;2022-11-30T15:38:47;14.00;78.40
35700;DHT22;21818;51.078;12.108;2022-11-30T15:41:20;14.00;77.90
35700;DHT22;21818;51.078;12.108;2022-11-30T15:43:52;14.00;77.90
35700;DHT22;21818;51.078;12.108;2022-11-30T15:46:30;14.00;77.90
35700;DHT22;21818;51.078;12.108;2022-11-30T15:49:21;14.00;77.90
35700;DHT22;21818;51.078;12.108;2022-11-30T15:52:05;14.00;77.90
35700;DHT22;21818;51.078;12.108;2022-11-30T15:54:49;14.00;77.90
35700;DHT22;21818;51.078;12.108;2022-11-30T15:57:20;14.00;78.00
35700;DHT22;21818;51.078;12.108;2022-11-30T16:02:35;14.00;78.00
35700;DHT22;21818;51.078;12.108;2022-11-30T16:07:58;14.00;78.00
35700;DHT22;21818;51.078;12.108;2022-11-30T16:10:34;14.00;78.00
35700;DHT22;21818;51.078;12.108;2022-11-30T16:13:01;14.00;78.00
35700;DHT22;21818;51.078;12.108;2022-11-30T16:15:32;14.00;78.00
35700;DHT22;21818;51.078;12.108;2022-11-30T16:18:09;14.00;78.00
35700;DHT22;21818;51.078;12.108;2022-11-30T16:20:36;13.90;77.90
35700;DHT22;21818;51.078;12.108;2022-11-30T16:23:02;13.90;78.00
35700;DHT22;21818;51.078;12.108;2022-11-30T16:25:27;13.90;78.00
35700;DHT22;21818;51.078;12.108;2022-11-30T16:27:53;13.90;78.00
35700;DHT22;21818;51.078;12.108;2022-11-30T16:30:21;13.90;78.00
35700;DHT22;21818;51.078;12.108;2022-11-30T16:32:48;13.90;78.00
35700;DHT22;21818;51.078;12.108;2022-11-30T16:35:25;13.90;78.00
35700;DHT22;21818;51.078;12.108;2022-11-30T16:37:52;13.90;78.00
35700;DHT22;21818;51.078;12.108;2022-11-30T16:40:18;13.90;78.00
35700;DHT22;21818;51.078;12.108;2022-11-30T16:42:44;13.90;78.00
35700;DHT22;21818;51.078;12.108;2022-11-30T16:45:24;13.90;78.00
35700;DHT22;21818;51.078;12.108;2022-11-30T16:47:50;13.90;78.60
35700;DHT22;21818;51.078;12.108;2022-11-30T16:50:19;13.90;78.10
35700;DHT22;21818;51.078;12.108;2022-11-30T16:52:44;13.90;78.10
35700;DHT22;21818;51.078;12.108;2022-11-30T16:55:11;13.90;78.10
35700;DHT22;21818;51.078;12.108;2022-11-30T16:57:37;13.90;78.60
35700;DHT22;21818;51.078;12.108;2022-11-30T17:00:04;13.90;78.10
35700;DHT22;21818;51.078;12.108;2022-11-30T17:02:30;13.90;78.10
35700;DHT22;21818;51.078;12.108;2022-11-30T17:04:57;13.90;78.10
35700;DHT22;21818;51.078;12.108;2022-11-30T17:07:23;13.90;78.10
35700;DHT22;21818;51.078;12.108;2022-11-30T17:09:49;13.90;78.10
35700;DHT22;21818;51.078;12.108;2022-11-30T17:12:14;13.90;77.90
35700;DHT22;21818;51.078;12.108;2022-11-30T17:14:40;13.90;77.90
35700;DHT22;21818;51.078;12.108;2022-11-30T17:17:06;13.80;77.90
35700;DHT22;21818;51.078;12.108;2022-11-30T17:19:31;13.80;78.00
35700;DHT22;21818;51.078;12.108;2022-11-30T17:21:57;13.80;78.00
35700;DHT22;21818;51.078;12.108;2022-11-30T17:24:23;13.80;78.10
35700;DHT22;21818;51.078;12.108;2022-11-30T17:26:48;13.80;78.10
35700;DHT22;21818;51.078;12.108;2022-11-30T17:29:14;13.80;78.20
35700;DHT22;21818;51.078;12.108;2022-11-30T17:31:39;13.80;78.20
35700;DHT22;21818;51.078;12.108;2022-11-30T17:34:05;13.80;78.30